New Yoshino — JG5527 — position and weather

sailwx.info

Track history (hours):
 
Tides and Currents Weather Stations Pressure Air Temp Water Temp Dewpoint Dewpoint Depression Visibility Wind Speed Wind Dir Waves Ship Positions

New Yoshino

Last reported at 2017-Nov-22 21:59 UTC. Time now 2017-Nov-23 21:59 UTC.
Position N 34°01' E 134°60'.

Length 102 m; draft 6.3 m.

Type: Tanker. MMSI: 431300724.

Date/timePositionNaut miles runAvg speedWind from/ knotsBaromVisibWave heightAir tempDewpointWater temp
2017-Nov-22 21:59N 34°01' E 134°60'613.1
2017-Nov-22 21:30N 34°07' E 134°59'714.5
2017-Nov-22 21:00N 34°14' E 134°59'814.3
2017-Nov-22 20:27N 34°22' E 134°60'613.7
2017-Nov-22 20:00N 34°28' E 135°02'714.1
2017-Nov-22 19:31N 34°35' E 135°03'  
2017-Nov-15 14:26N 33°59' E 135°01'613.2
2017-Nov-15 14:01N 34°05' E 135°03'4 8.3
2017-Nov-15 13:31N 34°08' E 135°07'1 0.1
2017-Nov-15 06:03N 34°07' E 135°07'0 0.0
2017-Nov-15 06:00N 34°07' E 135°07'0 1.0
2017-Nov-15 05:30N 34°08' E 135°07'0 0.0
2017-Nov-15 05:01N 34°08' E 135°07'0 0.2
2017-Nov-15 04:30N 34°08' E 135°07'4 7.4
2017-Nov-15 04:00N 34°06' E 135°03'612.2
2017-Nov-15 03:30N 33°59' E 135°02'17210.1
2017-Nov-14 10:34N 34°42' E 138°24'  
Track history (hours):
 
Tides and Currents Weather Stations Pressure Air Temp Water Temp Dewpoint Dewpoint Depression Visibility Wind Speed Wind Dir Waves Ship Positions

New Yoshino

Last reported at 2017-Nov-22 21:59 UTC. Time now 2017-Nov-23 22:00 UTC.
Position N 34°01' E 134°60'.

Length 102 m; draft 6.3 m.

Type: Tanker. MMSI: 431300724.

Date/timePositionNaut miles runAvg speedWind from/ knotsBaromVisibWave heightAir tempDewpointWater temp
2017-Nov-22 21:59N 34°01' E 134°60'613.1
2017-Nov-22 21:30N 34°07' E 134°59'714.5
2017-Nov-22 21:00N 34°14' E 134°59'814.3
2017-Nov-22 20:27N 34°22' E 134°60'613.7
2017-Nov-22 20:00N 34°28' E 135°02'714.1
2017-Nov-22 19:31N 34°35' E 135°03'  
2017-Nov-15 14:26N 33°59' E 135°01'613.2
2017-Nov-15 14:01N 34°05' E 135°03'4 8.3
2017-Nov-15 13:31N 34°08' E 135°07'1 0.1
2017-Nov-15 06:03N 34°07' E 135°07'0 0.0
2017-Nov-15 06:00N 34°07' E 135°07'0 1.0
2017-Nov-15 05:30N 34°08' E 135°07'0 0.0
2017-Nov-15 05:01N 34°08' E 135°07'0 0.2
2017-Nov-15 04:30N 34°08' E 135°07'4 7.4
2017-Nov-15 04:00N 34°06' E 135°03'612.2
2017-Nov-15 03:30N 33°59' E 135°02'17210.1
2017-Nov-14 10:34N 34°42' E 138°24'  

Dump ship's entire track history